Time;durP1;ratioP1;P1;durP2;ratioP2;P2;SDS_P1;SDS_P2;PMS_P1;PMS_P2;Temp;Humidity;BMP_temperature;BMP_pressure;BME280_temperature;BME280_humidity;BME280_pressure;Samples;Min_cycle;Max_cycle;Signal;HPM_P1;HPM_P2
2022/06/26 00:01:34;;;;;;;0.60;0.60;;;25.90;51.70;;;;;;5030313;28;20040;-65
2022/06/26 00:04:00;;;;;;;0.57;0.50;;;25.90;51.70;;;;;;5029779;28;20037;-61
2022/06/26 00:06:26;;;;;;;0.50;0.50;;;25.90;51.70;;;;;;5027987;28;20055;-64
2022/06/26 00:08:51;;;;;;;0.80;0.70;;;25.90;52.20;;;;;;5031388;28;20099;-66
2022/06/26 00:11:17;;;;;;;0.65;0.57;;;25.90;51.70;;;;;;5034741;28;20029;-65
2022/06/26 00:13:43;;;;;;;1.10;0.80;;;25.90;51.70;;;;;;5035141;28;20086;-64
2022/06/26 00:16:09;;;;;;;0.85;0.60;;;25.90;51.70;;;;;;5034034;28;20596;-64
2022/06/26 00:18:35;;;;;;;0.50;0.50;;;25.90;51.70;;;;;;5032785;28;20037;-65
2022/06/26 00:21:00;;;;;;;0.60;0.57;;;25.90;51.70;;;;;;5032066;28;20072;-65
2022/06/26 00:23:26;;;;;;;0.63;0.60;;;25.90;51.70;;;;;;5034355;28;20111;-63
2022/06/26 00:25:52;;;;;;;0.52;0.50;;;25.90;51.70;;;;;;5034012;28;20029;-64
2022/06/26 00:28:17;;;;;;;0.50;0.50;;;25.90;51.70;;;;;;5033924;28;20029;-65
2022/06/26 00:30:43;;;;;;;0.60;0.60;;;25.90;51.70;;;;;;5034255;28;20029;-65
2022/06/26 00:33:09;;;;;;;0.50;0.50;;;25.90;51.70;;;;;;5032193;28;20567;-65
2022/06/26 00:35:35;;;;;;;0.63;0.60;;;25.90;51.70;;;;;;5031302;28;20051;-64
2022/06/26 00:38:00;;;;;;;0.50;0.50;;;25.90;51.60;;;;;;5033088;28;20033;-65
2022/06/26 00:40:26;;;;;;;0.70;0.60;;;25.90;52.20;;;;;;5033893;28;20033;-65
2022/06/26 00:42:52;;;;;;;0.82;0.50;;;25.90;51.60;;;;;;5033750;28;20060;-65
2022/06/26 00:45:18;;;;;;;0.50;0.50;;;25.90;51.60;;;;;;5032540;28;21933;-64
2022/06/26 00:47:46;;;;;;;0.65;0.50;;;25.90;51.60;;;;;;5031957;28;20037;-65
2022/06/26 00:50:12;;;;;;;0.50;0.50;;;25.90;51.60;;;;;;5033536;28;20033;-66
2022/06/26 00:52:40;;;;;;;0.40;0.40;;;25.90;51.60;;;;;;5033702;28;20029;-65
2022/06/26 00:55:07;;;;;;;0.70;0.50;;;25.90;51.60;;;;;;5033828;28;20075;-62
2022/06/26 00:57:35;;;;;;;1.00;0.60;;;25.90;51.60;;;;;;5030818;28;20607;-61
2022/06/26 01:00:01;;;;;;;0.50;0.50;;;25.90;51.60;;;;;;5036037;28;20535;-66
2022/06/26 01:02:26;;;;;;;0.82;0.60;;;25.90;51.70;;;;;;5031416;28;20160;-65
2022/06/26 01:04:52;;;;;;;0.50;0.50;;;25.80;51.50;;;;;;5033917;28;20574;-65
2022/06/26 01:07:18;;;;;;;0.80;0.60;;;25.90;51.60;;;;;;5030349;28;20045;-66
2022/06/26 01:09:44;;;;;;;0.60;0.57;;;25.80;51.60;;;;;;5033983;28;20534;-66
2022/06/26 01:12:10;;;;;;;0.60;0.60;;;25.80;51.60;;;;;;5035898;28;20100;-64
2022/06/26 01:14:37;;;;;;;0.60;0.60;;;25.80;51.50;;;;;;5029766;28;20058;-64
2022/06/26 01:17:03;;;;;;;0.57;0.57;;;25.90;51.60;;;;;;5034650;28;20028;-65
2022/06/26 01:19:30;;;;;;;0.57;0.50;;;25.80;51.60;;;;;;5030561;28;20040;-61
2022/06/26 01:21:56;;;;;;;0.60;0.60;;;25.90;51.60;;;;;;5030635;28;20044;-65
2022/06/26 01:24:22;;;;;;;0.50;0.50;;;25.80;51.50;;;;;;5031131;28;20033;-65
2022/06/26 01:26:48;;;;;;;0.80;0.60;;;25.80;51.70;;;;;;5034779;28;20346;-63
2022/06/26 01:29:13;;;;;;;0.52;0.52;;;25.80;51.60;;;;;;5031874;28;20036;-64
2022/06/26 01:31:40;;;;;;;0.95;0.60;;;25.80;51.60;;;;;;5033135;28;20025;-63
2022/06/26 01:34:07;;;;;;;0.50;0.50;;;25.80;51.60;;;;;;5032359;28;20213;-65
2022/06/26 01:36:33;;;;;;;0.60;0.50;;;25.80;51.50;;;;;;5032280;28;20045;-61
2022/06/26 01:38:59;;;;;;;0.50;0.50;;;25.80;51.60;;;;;;5031849;28;20033;-65
2022/06/26 01:41:24;;;;;;;0.40;0.40;;;25.80;51.60;;;;;;5034455;28;20079;-65
2022/06/26 01:43:50;;;;;;;0.90;0.60;;;25.80;51.60;;;;;;5032906;28;20053;-61
2022/06/26 01:46:16;;;;;;;0.47;0.47;;;25.80;51.60;;;;;;5032696;28;20056;-65
2022/06/26 01:48:42;;;;;;;0.70;0.60;;;25.80;51.60;;;;;;5031429;28;20117;-65
2022/06/26 01:51:08;;;;;;;0.50;0.50;;;25.80;51.60;;;;;;5032641;28;20029;-65
2022/06/26 01:53:35;;;;;;;0.90;0.63;;;25.80;51.60;;;;;;5030730;28;20484;-60
2022/06/26 01:56:01;;;;;;;0.60;0.60;;;25.80;51.60;;;;;;5031903;28;20037;-64
2022/06/26 01:58:27;;;;;;;0.63;0.50;;;25.80;51.60;;;;;;5032378;28;20106;-64
2022/06/26 02:00:55;;;;;;;0.93;0.60;;;25.80;51.60;;;;;;5033414;28;20037;-63
2022/06/26 02:03:22;;;;;;;0.60;0.60;;;25.80;51.60;;;;;;5029373;28;20372;-63
2022/06/26 02:05:48;;;;;;;0.52;0.50;;;25.70;51.50;;;;;;5030019;28;20029;-65
2022/06/26 02:08:14;;;;;;;0.57;0.50;;;25.80;51.60;;;;;;5032647;28;20037;-64
2022/06/26 02:13:37;;;;;;;1.10;0.50;;;25.80;51.50;;;;;;5034001;28;20071;-64
2022/06/26 02:16:20;;;;;;;0.55;0.50;;;25.80;51.50;;;;;;5031350;28;20464;-66
2022/06/26 02:18:48;;;;;;;0.60;0.60;;;25.70;51.50;;;;;;5029492;28;20032;-63
2022/06/26 02:21:16;;;;;;;0.55;0.50;;;25.80;51.50;;;;;;5031764;28;20025;-64
2022/06/26 02:23:43;;;;;;;0.73;0.55;;;25.70;51.50;;;;;;5031927;28;20021;-61
2022/06/26 02:26:09;;;;;;;0.60;0.50;;;25.80;51.50;;;;;;5030257;28;20037;-63
2022/06/26 02:28:37;;;;;;;0.68;0.60;;;25.80;51.60;;;;;;5030945;28;20083;-63
2022/06/26 02:31:03;;;;;;;0.50;0.50;;;25.70;51.50;;;;;;5032531;28;20057;-65
2022/06/26 02:33:32;;;;;;;0.47;0.47;;;25.80;51.60;;;;;;5030266;28;20049;-65
2022/06/26 02:35:58;;;;;;;0.40;0.40;;;25.70;51.50;;;;;;5027825;28;20057;-64
2022/06/26 02:38:24;;;;;;;0.50;0.50;;;25.80;51.50;;;;;;5030640;28;20401;-66
2022/06/26 02:40:50;;;;;;;0.63;0.60;;;25.80;51.60;;;;;;5032478;28;20037;-66
2022/06/26 02:43:18;;;;;;;0.60;0.60;;;25.70;51.50;;;;;;5034063;28;20033;-63
2022/06/26 02:45:44;;;;;;;0.57;0.50;;;25.80;51.50;;;;;;5031931;28;20040;-65
2022/06/26 02:48:10;;;;;;;0.60;0.60;;;25.70;51.50;;;;;;5029490;28;20072;-65
2022/06/26 02:50:36;;;;;;;0.40;0.40;;;25.70;51.50;;;;;;5030990;28;20060;-63
2022/06/26 02:53:02;;;;;;;0.50;0.50;;;25.70;51.50;;;;;;5031658;28;20430;-66
2022/06/26 02:55:28;;;;;;;0.50;0.50;;;25.70;51.50;;;;;;5033828;28;20451;-61
2022/06/26 02:57:54;;;;;;;0.73;0.50;;;25.70;51.50;;;;;;5028467;28;20028;-65
2022/06/26 03:00:19;;;;;;;0.68;0.52;;;25.70;51.50;;;;;;5032093;28;20059;-65
2022/06/26 03:02:45;;;;;;;0.60;0.50;;;25.70;51.50;;;;;;5029696;28;20035;-66
2022/06/26 03:05:11;;;;;;;0.50;0.50;;;25.70;51.50;;;;;;5026432;28;20037;-66
2022/06/26 03:07:36;;;;;;;0.63;0.50;;;25.70;51.50;;;;;;5028324;28;20128;-66
2022/06/26 03:10:02;;;;;;;0.57;0.55;;;25.70;51.50;;;;;;5035186;28;20029;-65
2022/06/26 03:12:28;;;;;;;0.70;0.50;;;25.70;51.50;;;;;;5031573;28;20061;-63
2022/06/26 03:14:53;;;;;;;0.60;0.47;;;25.70;51.50;;;;;;5034288;28;20025;-63
2022/06/26 03:17:19;;;;;;;0.40;0.40;;;25.70;51.50;;;;;;5030285;28;20166;-64
2022/06/26 03:19:45;;;;;;;0.50;0.50;;;25.70;51.50;;;;;;5030145;28;20037;-64
2022/06/26 03:22:11;;;;;;;0.50;0.50;;;25.70;51.50;;;;;;5027864;28;20385;-65
2022/06/26 03:24:36;;;;;;;0.60;0.60;;;25.70;51.50;;;;;;5032608;28;20029;-65
2022/06/26 03:27:02;;;;;;;0.50;0.50;;;25.70;52.00;;;;;;5029999;28;20641;-66
2022/06/26 03:29:28;;;;;;;0.60;0.60;;;25.70;51.50;;;;;;5032257;28;20033;-67
2022/06/26 03:31:55;;;;;;;0.50;0.50;;;25.70;51.50;;;;;;5029820;28;20041;-65
2022/06/26 03:34:21;;;;;;;0.50;0.50;;;25.70;51.50;;;;;;5031393;28;20036;-64
2022/06/26 03:36:46;;;;;;;0.45;0.45;;;25.60;51.50;;;;;;5026898;28;20048;-65
2022/06/26 03:39:12;;;;;;;0.68;0.50;;;25.70;51.50;;;;;;5029037;28;20501;-66
2022/06/26 03:41:38;;;;;;;0.50;0.50;;;25.70;51.50;;;;;;5029521;28;20025;-63
2022/06/26 03:44:04;;;;;;;0.47;0.45;;;25.60;51.40;;;;;;5035628;28;20162;-65
2022/06/26 03:46:30;;;;;;;0.40;0.40;;;25.70;51.50;;;;;;5033438;28;20143;-64
2022/06/26 03:48:55;;;;;;;0.50;0.50;;;25.70;51.50;;;;;;5035700;28;20072;-66
2022/06/26 03:51:21;;;;;;;0.35;0.35;;;25.60;51.50;;;;;;5029415;28;20021;-65
2022/06/26 03:53:46;;;;;;;0.47;0.47;;;25.70;51.50;;;;;;5037355;28;20428;-65
2022/06/26 03:56:12;;;;;;;0.50;0.50;;;25.70;51.50;;;;;;5033188;28;20094;-63
2022/06/26 03:58:38;;;;;;;0.40;0.40;;;25.70;51.50;;;;;;5035924;28;20185;-63
2022/06/26 04:01:03;;;;;;;0.40;0.40;;;25.70;51.50;;;;;;5034954;28;20645;-65
2022/06/26 04:03:29;;;;;;;1.10;0.43;;;25.60;51.50;;;;;;5036413;28;20043;-65
2022/06/26 04:05:55;;;;;;;0.50;0.50;;;25.70;51.50;;;;;;5031808;28;20029;-62
2022/06/26 04:08:20;;;;;;;0.70;0.60;;;25.70;51.50;;;;;;5033481;28;20029;-65
2022/06/26 04:10:46;;;;;;;0.70;0.60;;;25.60;51.10;;;;;;5033389;28;20033;-65
2022/06/26 04:13:13;;;;;;;1.33;0.88;;;25.60;49.30;;;;;;5033571;28;20040;-66
2022/06/26 04:15:40;;;;;;;1.98;0.90;;;25.50;48.30;;;;;;5034258;28;20067;-63
2022/06/26 04:18:07;;;;;;;2.63;0.90;;;25.30;48.80;;;;;;5034939;28;20028;-65
2022/06/26 04:20:33;;;;;;;2.63;0.90;;;25.20;48.20;;;;;;5030799;28;20029;-64
2022/06/26 04:23:02;;;;;;;1.88;0.80;;;25.20;48.80;;;;;;5034586;28;20549;-66
2022/06/26 04:25:30;;;;;;;1.80;0.93;;;25.30;48.80;;;;;;5033469;28;20162;-64
2022/06/26 04:27:56;;;;;;;1.35;0.80;;;25.30;48.20;;;;;;5034435;28;20033;-65
2022/06/26 04:30:22;;;;;;;0.90;0.70;;;25.30;48.40;;;;;;5032515;28;20105;-65
2022/06/26 04:32:48;;;;;;;3.20;0.90;;;25.30;48.20;;;;;;5034292;28;20618;-65
2022/06/26 04:35:14;;;;;;;2.63;0.90;;;25.30;47.80;;;;;;5031178;28;20099;-62
2022/06/26 04:37:40;;;;;;;1.70;0.80;;;25.20;48.00;;;;;;5031310;28;20040;-64
2022/06/26 04:40:08;;;;;;;2.30;0.80;;;25.20;48.10;;;;;;5031923;28;20485;-64
2022/06/26 04:42:34;;;;;;;4.60;1.10;;;25.10;48.30;;;;;;5031770;28;20102;-65
2022/06/26 04:45:00;;;;;;;3.65;0.90;;;25.10;48.50;;;;;;5034451;28;20033;-60
2022/06/26 04:47:25;;;;;;;2.25;1.10;;;25.10;48.80;;;;;;5032321;28;20060;-64
2022/06/26 04:49:51;;;;;;;2.78;1.10;;;25.10;49.00;;;;;;5034906;28;20055;-64
2022/06/26 04:52:16;;;;;;;3.88;1.17;;;25.00;49.10;;;;;;5028339;28;20113;-64
2022/06/26 04:54:43;;;;;;;2.65;0.90;;;25.00;49.30;;;;;;5033167;28;20052;-64
2022/06/26 04:57:09;;;;;;;1.55;0.98;;;24.90;49.50;;;;;;5031345;28;20043;-60
2022/06/26 04:59:35;;;;;;;2.45;1.10;;;24.90;49.90;;;;;;5034436;28;20110;-63
2022/06/26 05:02:01;;;;;;;1.85;1.10;;;24.80;50.20;;;;;;5030878;28;20041;-64
2022/06/26 05:04:27;;;;;;;2.20;1.00;;;24.80;50.50;;;;;;5032380;28;20080;-63
2022/06/26 05:06:53;;;;;;;2.38;1.10;;;24.80;50.70;;;;;;5031290;28;20120;-64
2022/06/26 05:09:18;;;;;;;2.50;1.00;;;24.80;50.80;;;;;;5035738;28;20033;-60
2022/06/26 05:11:44;;;;;;;1.30;1.00;;;24.80;51.00;;;;;;5033127;28;20044;-65
2022/06/26 05:14:10;;;;;;;2.30;0.93;;;24.70;51.20;;;;;;5033690;28;20102;-64
2022/06/26 05:16:36;;;;;;;1.33;0.90;;;24.70;51.30;;;;;;5032743;28;20037;-60
2022/06/26 05:19:02;;;;;;;1.42;1.00;;;24.70;51.40;;;;;;5033462;28;20121;-61
2022/06/26 05:21:28;;;;;;;1.00;0.88;;;24.70;51.50;;;;;;5028984;28;20112;-64
2022/06/26 05:23:55;;;;;;;1.65;1.00;;;24.70;51.60;;;;;;5029961;28;20545;-60
2022/06/26 05:26:22;;;;;;;1.65;0.98;;;24.60;51.80;;;;;;5033244;28;20095;-65
2022/06/26 05:28:48;;;;;;;1.73;0.90;;;24.50;51.90;;;;;;5029883;28;20021;-64
2022/06/26 05:31:14;;;;;;;2.33;1.17;;;24.50;52.10;;;;;;5029100;28;20060;-65
2022/06/26 05:33:41;;;;;;;1.85;0.90;;;24.50;52.10;;;;;;5032791;28;20037;-64
2022/06/26 05:36:07;;;;;;;1.52;0.93;;;24.50;52.10;;;;;;5031623;28;20057;-61
2022/06/26 05:38:36;;;;;;;2.30;1.10;;;24.60;52.10;;;;;;5029889;28;20691;-64
2022/06/26 05:41:02;;;;;;;1.63;0.90;;;24.60;52.20;;;;;;5029324;28;20041;-64
2022/06/26 05:43:28;;;;;;;1.48;1.00;;;24.50;52.20;;;;;;5033384;28;20103;-62
2022/06/26 05:45:54;;;;;;;4.38;1.60;;;24.50;52.50;;;;;;5033013;28;20056;-65
2022/06/26 05:48:20;;;;;;;3.15;1.40;;;24.40;52.90;;;;;;5031018;28;21720;-62
2022/06/26 05:50:45;;;;;;;1.80;1.20;;;24.20;53.60;;;;;;5029927;28;20029;-65
2022/06/26 05:53:11;;;;;;;2.25;1.00;;;24.10;54.00;;;;;;5030658;28;20064;-64
2022/06/26 05:55:38;;;;;;;1.65;1.10;;;24.10;54.00;;;;;;5027854;28;20101;-65
2022/06/26 05:58:07;;;;;;;1.77;1.10;;;24.10;53.80;;;;;;5030495;28;20021;-63
2022/06/26 06:00:34;;;;;;;1.73;0.80;;;24.10;53.70;;;;;;5033500;28;20055;-63
2022/06/26 06:02:59;;;;;;;2.35;1.10;;;24.20;53.70;;;;;;5031182;28;21079;-64
2022/06/26 06:05:25;;;;;;;1.52;1.00;;;24.20;53.60;;;;;;5026156;28;20040;-66
2022/06/26 06:07:52;;;;;;;1.70;0.90;;;24.20;53.50;;;;;;5029576;28;20503;-65
2022/06/26 06:10:19;;;;;;;1.25;0.85;;;24.20;53.40;;;;;;5028073;28;20462;-64
2022/06/26 06:12:46;;;;;;;1.40;0.90;;;24.20;53.30;;;;;;5031194;28;20047;-64
2022/06/26 06:15:12;;;;;;;1.55;0.90;;;24.20;53.30;;;;;;5025948;28;20039;-64
2022/06/26 06:17:40;;;;;;;1.95;1.00;;;24.20;53.30;;;;;;5026228;28;20057;-63
2022/06/26 06:20:26;;;;;;;1.20;0.90;;;24.20;53.30;;;;;;5029125;28;20043;-64
2022/06/26 06:23:01;;;;;;;1.45;0.80;;;24.20;53.40;;;;;;5025947;28;20052;-65
2022/06/26 06:25:27;;;;;;;1.45;0.90;;;24.30;53.40;;;;;;5032886;28;20160;-63
2022/06/26 06:27:53;;;;;;;1.70;0.90;;;24.30;53.50;;;;;;5025002;28;20156;-64
2022/06/26 06:30:18;;;;;;;2.38;0.90;;;24.30;53.50;;;;;;5028821;28;20033;-65
2022/06/26 06:32:45;;;;;;;1.23;1.00;;;24.30;53.50;;;;;;5028420;28;20500;-64
2022/06/26 06:35:13;;;;;;;1.90;1.17;;;24.30;53.60;;;;;;5031486;28;20025;-64
2022/06/26 06:37:40;;;;;;;1.45;0.85;;;24.30;53.50;;;;;;5029662;28;20159;-66
2022/06/26 06:40:07;;;;;;;2.72;1.10;;;24.30;53.50;;;;;;5031108;28;20066;-64
2022/06/26 06:42:33;;;;;;;1.63;1.10;;;24.30;53.60;;;;;;5030776;28;20052;-66
2022/06/26 06:44:58;;;;;;;2.10;1.00;;;24.30;53.60;;;;;;5027763;28;20033;-66
2022/06/26 06:47:24;;;;;;;1.60;1.00;;;24.30;53.50;;;;;;5029176;28;20048;-64
2022/06/26 06:49:50;;;;;;;1.33;0.90;;;24.30;53.50;;;;;;5023253;28;20044;-66
2022/06/26 06:52:15;;;;;;;1.65;1.00;;;24.30;53.40;;;;;;5028635;28;20057;-63
2022/06/26 06:54:41;;;;;;;1.95;1.02;;;24.30;53.30;;;;;;5028660;28;20041;-66
2022/06/26 06:57:07;;;;;;;1.55;1.00;;;24.30;53.30;;;;;;5028709;28;20037;-63
2022/06/26 06:59:32;;;;;;;1.80;1.02;;;24.30;53.30;;;;;;5027483;28;20029;-65
2022/06/26 07:01:58;;;;;;;2.00;1.10;;;24.30;53.20;;;;;;5029163;28;20828;-64
2022/06/26 07:04:23;;;;;;;1.20;0.90;;;24.30;53.20;;;;;;5022373;28;20036;-65
2022/06/26 07:06:49;;;;;;;1.65;1.08;;;24.30;53.10;;;;;;5029779;28;20250;-64
2022/06/26 07:09:15;;;;;;;1.63;1.00;;;24.30;53.10;;;;;;5028524;28;20095;-64
2022/06/26 07:11:41;;;;;;;1.42;0.90;;;24.30;53.10;;;;;;5032070;28;20048;-66
2022/06/26 07:14:06;;;;;;;1.23;0.95;;;24.30;53.10;;;;;;5029098;28;20109;-64
2022/06/26 07:16:32;;;;;;;1.95;1.00;;;24.30;53.10;;;;;;5025584;28;20029;-63
2022/06/26 07:18:58;;;;;;;1.67;1.10;;;24.40;53.10;;;;;;5030227;28;20037;-63
2022/06/26 07:21:24;;;;;;;1.70;1.30;;;24.30;53.00;;;;;;5030684;28;20084;-65
2022/06/26 07:23:49;;;;;;;1.63;0.82;;;24.40;53.00;;;;;;5032424;28;20072;-64
2022/06/26 07:26:15;;;;;;;1.67;0.90;;;24.40;53.00;;;;;;5035488;28;20504;-64
2022/06/26 07:28:41;;;;;;;1.23;1.00;;;24.40;52.90;;;;;;5034278;28;20088;-66
2022/06/26 07:31:07;;;;;;;1.50;1.00;;;24.40;52.90;;;;;;5023735;28;20355;-64
2022/06/26 07:36:16;;;;;;;1.45;0.95;;;24.40;52.80;;;;;;5032934;28;20048;-65
2022/06/26 07:38:42;;;;;;;1.60;0.90;;;24.40;52.80;;;;;;5025668;28;20029;-63
2022/06/26 07:41:08;;;;;;;1.42;0.98;;;24.40;52.90;;;;;;5033829;28;20535;-63
2022/06/26 07:43:34;;;;;;;1.48;0.88;;;24.40;52.80;;;;;;5031069;28;20030;-64
2022/06/26 07:45:59;;;;;;;2.38;0.90;;;24.50;52.90;;;;;;5037447;28;20110;-63
2022/06/26 07:48:25;;;;;;;1.13;0.75;;;24.50;52.90;;;;;;5026641;28;20059;-65
2022/06/26 07:50:50;;;;;;;0.80;0.80;;;24.50;52.80;;;;;;5028920;28;20037;-64
2022/06/26 07:53:16;;;;;;;0.80;0.80;;;24.50;52.80;;;;;;5021559;28;20030;-65
2022/06/26 07:55:42;;;;;;;1.52;1.00;;;24.50;52.80;;;;;;5030890;28;20041;-63
2022/06/26 07:58:08;;;;;;;0.80;0.80;;;24.50;52.80;;;;;;5024668;28;20034;-63
2022/06/26 08:00:33;;;;;;;1.35;0.95;;;24.50;52.70;;;;;;5028426;28;20037;-64
2022/06/26 08:03:08;;;;;;;1.50;0.90;;;24.50;53.00;;;;;;5027477;28;20043;-64
2022/06/26 08:05:35;;;;;;;1.40;1.00;;;24.50;52.70;;;;;;5047248;28;20033;-65
2022/06/26 08:08:01;;;;;;;0.90;0.80;;;24.50;52.70;;;;;;5028012;28;20108;-63
2022/06/26 08:10:27;;;;;;;0.80;0.80;;;24.50;52.80;;;;;;5031123;28;20021;-65
2022/06/26 08:12:54;;;;;;;1.13;0.80;;;24.50;52.70;;;;;;5028652;28;20051;-65
2022/06/26 08:15:20;;;;;;;1.50;0.82;;;24.50;52.70;;;;;;5026062;28;20083;-65
2022/06/26 08:17:45;;;;;;;1.80;0.80;;;24.50;52.70;;;;;;5029993;28;21047;-65
2022/06/26 08:20:11;;;;;;;1.67;1.00;;;24.50;52.70;;;;;;5028547;28;20049;-65
2022/06/26 08:22:37;;;;;;;0.93;0.70;;;24.50;52.70;;;;;;5027687;28;20037;-64
2022/06/26 08:25:02;;;;;;;1.55;0.82;;;24.50;52.70;;;;;;5028067;28;20041;-63
2022/06/26 08:27:28;;;;;;;1.08;0.80;;;24.50;52.70;;;;;;5026689;28;20079;-61
2022/06/26 08:29:57;;;;;;;0.70;0.70;;;24.50;52.60;;;;;;5029485;28;20457;-65
2022/06/26 08:32:22;;;;;;;0.98;0.80;;;24.50;52.60;;;;;;5028751;28;20079;-65
2022/06/26 08:34:48;;;;;;;0.90;0.80;;;24.50;52.50;;;;;;5009665;28;20068;-65
2022/06/26 08:37:15;;;;;;;1.25;0.88;;;24.60;52.60;;;;;;5025119;28;20033;-64
2022/06/26 08:39:42;;;;;;;0.98;0.77;;;24.50;52.60;;;;;;5026032;28;20029;-65
2022/06/26 08:42:08;;;;;;;1.02;0.80;;;24.60;52.60;;;;;;5028380;28;20033;-66
2022/06/26 08:44:35;;;;;;;1.02;0.80;;;24.60;52.60;;;;;;5032404;28;20429;-64
2022/06/26 08:47:03;;;;;;;1.15;0.80;;;24.60;52.70;;;;;;5027371;28;20029;-65
2022/06/26 08:49:29;;;;;;;1.42;0.80;;;24.60;52.60;;;;;;5030520;28;20492;-65
2022/06/26 08:51:54;;;;;;;0.70;0.68;;;24.60;52.70;;;;;;5024475;28;20032;-64
2022/06/26 08:54:20;;;;;;;1.33;0.70;;;24.60;52.60;;;;;;5032669;28;20072;-64
2022/06/26 08:56:48;;;;;;;1.20;1.00;;;24.60;52.50;;;;;;5031116;28;20128;-65
2022/06/26 08:59:16;;;;;;;1.15;0.80;;;24.70;52.60;;;;;;5029564;28;20036;-62
2022/06/26 09:01:42;;;;;;;0.80;0.80;;;24.70;52.40;;;;;;5017911;28;20190;-65
2022/06/26 09:04:08;;;;;;;1.17;0.70;;;24.70;52.40;;;;;;5028846;28;20025;-63
2022/06/26 09:06:35;;;;;;;0.70;0.70;;;24.70;52.40;;;;;;5023649;28;20066;-66
2022/06/26 09:09:11;;;;;;;1.73;0.85;;;24.70;52.30;;;;;;5030641;28;20122;-64
2022/06/26 09:11:38;;;;;;;1.08;0.90;;;24.70;52.40;;;;;;5028472;28;20033;-64
2022/06/26 09:14:03;;;;;;;1.13;0.90;;;24.70;52.30;;;;;;5027793;28;20032;-65
2022/06/26 09:16:31;;;;;;;1.13;0.70;;;24.70;52.30;;;;;;5022275;28;20225;-66
2022/06/26 09:19:06;;;;;;;0.95;0.80;;;24.70;52.40;;;;;;5028022;28;20867;-63
2022/06/26 09:21:32;;;;;;;1.08;0.77;;;24.70;52.50;;;;;;5005196;28;20872;-65
2022/06/26 09:23:57;;;;;;;0.90;0.80;;;24.70;52.50;;;;;;5032202;28;20087;-65
2022/06/26 09:26:23;;;;;;;0.75;0.70;;;24.70;52.40;;;;;;5025772;28;20133;-64
2022/06/26 09:28:48;;;;;;;0.85;0.77;;;24.80;52.40;;;;;;5028085;28;20422;-62
2022/06/26 09:31:19;;;;;;;1.00;0.90;;;24.80;52.40;;;;;;5029602;28;20057;-65
2022/06/26 09:33:45;;;;;;;1.15;0.70;;;24.80;52.40;;;;;;5028624;28;20121;-61
2022/06/26 09:36:15;;;;;;;1.40;1.00;;;24.70;52.30;;;;;;5020818;28;20087;-65
2022/06/26 09:38:48;;;;;;;1.10;0.70;;;24.80;52.40;;;;;;5025649;28;20108;-63
2022/06/26 09:41:13;;;;;;;0.80;0.70;;;24.80;52.40;;;;;;5023335;28;20026;-64
2022/06/26 09:43:43;;;;;;;1.05;0.80;;;24.70;52.40;;;;;;5027850;28;20063;-62
2022/06/26 09:46:10;;;;;;;;;;;24.80;52.40;;;;;;5023707;28;20515;-65
2022/06/26 09:48:36;;;;;;;1.02;0.80;;;24.80;52.40;;;;;;5029471;28;20656;-66
2022/06/26 09:51:04;;;;;;;0.90;0.70;;;24.80;52.40;;;;;;5027340;28;20033;-63
2022/06/26 09:53:30;;;;;;;1.75;0.90;;;24.80;52.50;;;;;;5027061;28;20116;-65
2022/06/26 09:55:58;;;;;;;0.90;0.80;;;24.80;52.50;;;;;;5029498;28;20052;-63
2022/06/26 09:58:25;;;;;;;1.00;0.90;;;24.80;52.50;;;;;;5027065;28;20560;-62
2022/06/26 10:06:25;;;;;;;1.50;0.85;;;24.80;52.80;;;;;;5019873;28;20119;-64
2022/06/26 10:08:51;;;;;;;1.08;0.90;;;24.80;53.20;;;;;;5020764;28;20477;-65
2022/06/26 10:11:18;;;;;;;1.13;0.90;;;24.80;53.00;;;;;;5031728;28;20031;-66
2022/06/26 10:13:44;;;;;;;1.08;0.77;;;24.80;53.20;;;;;;5030583;28;20037;-66
2022/06/26 10:16:36;;;;;;;1.85;1.00;;;24.80;53.30;;;;;;5030733;28;20061;-64
2022/06/26 10:19:34;;;;;;;1.10;0.80;;;24.80;53.40;;;;;;5012400;28;20075;-65
2022/06/26 10:22:00;;;;;;;1.60;0.80;;;24.90;53.60;;;;;;5028932;28;20044;-65
2022/06/26 10:24:26;;;;;;;2.08;0.85;;;24.90;53.70;;;;;;5030950;28;20102;-63
2022/06/26 10:27:02;;;;;;;0.93;0.82;;;24.80;53.70;;;;;;5031081;28;20029;-62
2022/06/26 10:29:33;;;;;;;1.08;0.80;;;24.90;54.00;;;;;;5030192;28;20544;-61
2022/06/26 10:31:59;;;;;;;1.95;0.90;;;24.90;53.80;;;;;;5027646;28;20061;-63
2022/06/26 10:34:25;;;;;;;1.42;0.95;;;24.90;53.90;;;;;;5028034;28;20060;-64
2022/06/26 10:37:00;;;;;;;0.95;0.80;;;24.90;54.00;;;;;;5025677;28;20032;-65
2022/06/26 10:39:44;;;;;;;1.30;0.90;;;24.90;54.00;;;;;;5030286;28;20106;-62
2022/06/26 10:45:02;;;;;;;1.38;0.80;;;24.90;54.10;;;;;;5030533;28;20101;-65
2022/06/26 10:47:49;;;;;;;1.25;0.90;;;24.90;54.10;;;;;;5028492;28;20029;-64
2022/06/26 10:50:28;;;;;;;1.48;0.90;;;24.90;54.20;;;;;;5022550;28;21840;-64
2022/06/26 10:52:54;;;;;;;;;;;24.90;54.20;;;;;;5031390;28;20086;-65
2022/06/26 10:55:20;;;;;;;1.45;0.85;;;24.90;54.20;;;;;;5024027;28;19912;-65
2022/06/26 10:57:46;;;;;;;1.45;0.88;;;24.90;54.20;;;;;;5029994;28;20032;-65
2022/06/26 11:00:13;;;;;;;1.60;1.00;;;24.90;54.20;;;;;;5031252;28;20591;-64
2022/06/26 11:02:41;;;;;;;2.13;1.15;;;24.90;54.30;;;;;;5032919;28;20380;-63
2022/06/26 11:05:09;;;;;;;1.15;0.90;;;25.00;54.40;;;;;;5025162;28;20040;-63
2022/06/26 11:07:48;;;;;;;1.58;1.00;;;24.90;54.30;;;;;;5029731;28;20461;-66
2022/06/26 11:10:16;;;;;;;1.10;0.90;;;24.90;54.30;;;;;;5030147;28;20029;-66
2022/06/26 11:12:50;;;;;;;2.65;1.20;;;25.00;54.40;;;;;;5028243;28;20028;-64
2022/06/26 11:15:32;;;;;;;2.25;1.25;;;24.90;54.40;;;;;;5028335;28;20037;-65
2022/06/26 11:18:05;;;;;;;1.40;0.90;;;25.00;54.50;;;;;;5030585;28;20032;-64
2022/06/26 11:20:53;;;;;;;1.45;1.00;;;25.00;54.50;;;;;;5028663;28;20163;-61
2022/06/26 11:23:25;;;;;;;2.10;1.00;;;25.00;54.60;;;;;;5028236;28;20051;-64
2022/06/26 11:25:57;;;;;;;1.90;0.98;;;25.00;54.50;;;;;;5028503;28;20025;-65
2022/06/26 11:28:34;;;;;;;1.55;0.90;;;25.00;54.60;;;;;;5031942;28;20102;-61
2022/06/26 11:31:02;;;;;;;2.38;1.10;;;25.10;54.70;;;;;;5028720;28;20048;-66
2022/06/26 11:33:30;;;;;;;1.63;0.95;;;25.00;54.60;;;;;;5029004;28;20048;-65
2022/06/26 11:36:00;;;;;;;2.38;1.13;;;25.00;54.60;;;;;;5022916;28;20470;-65
2022/06/26 11:38:27;;;;;;;1.30;0.90;;;25.00;54.60;;;;;;5026421;28;20021;-65
2022/06/26 11:41:01;;;;;;;1.90;0.80;;;25.00;54.60;;;;;;5026441;28;20064;-60
2022/06/26 11:43:27;;;;;;;1.83;0.90;;;25.10;54.60;;;;;;5029992;28;20021;-63
2022/06/26 11:45:53;;;;;;;1.00;0.90;;;25.10;54.60;;;;;;5027338;28;20044;-61
2022/06/26 11:48:18;;;;;;;2.17;0.90;;;25.10;54.60;;;;;;5028306;28;20106;-62
2022/06/26 11:50:49;;;;;;;2.03;0.95;;;25.10;54.60;;;;;;5030196;28;20029;-65
2022/06/26 11:53:27;;;;;;;2.13;1.00;;;25.10;54.60;;;;;;5026894;28;20120;-62
2022/06/26 11:55:55;;;;;;;1.10;0.90;;;25.10;54.60;;;;;;5025932;28;20025;-65
2022/06/26 11:58:26;;;;;;;1.33;0.88;;;25.10;55.00;;;;;;5028093;28;20042;-65
2022/06/26 12:01:03;;;;;;;1.52;0.90;;;25.10;54.50;;;;;;5031370;28;20111;-63
2022/06/26 12:03:29;;;;;;;1.10;0.90;;;25.10;54.50;;;;;;5028942;28;20033;-65
2022/06/26 12:05:55;;;;;;;1.25;0.90;;;25.10;54.40;;;;;;5031276;28;20043;-64
2022/06/26 12:08:20;;;;;;;1.13;0.90;;;25.10;54.40;;;;;;5027887;28;20053;-60
2022/06/26 12:10:53;;;;;;;1.73;1.00;;;25.10;54.40;;;;;;5037451;28;20178;-66
2022/06/26 12:13:23;;;;;;;0.85;0.73;;;25.10;54.40;;;;;;5031846;28;20044;-65
2022/06/26 12:15:49;;;;;;;1.50;1.00;;;25.10;54.40;;;;;;5031803;28;20025;-63
2022/06/26 12:18:14;;;;;;;1.40;0.90;;;25.10;54.40;;;;;;5034569;28;20040;-64
2022/06/26 12:20:41;;;;;;;1.17;0.90;;;25.10;54.40;;;;;;5030504;28;20037;-61
2022/06/26 12:23:08;;;;;;;1.17;0.93;;;25.10;54.40;;;;;;5027339;28;20100;-64
2022/06/26 12:25:36;;;;;;;1.10;0.90;;;25.20;55.00;;;;;;5032972;28;20449;-65
2022/06/26 12:28:03;;;;;;;1.52;0.98;;;25.10;54.40;;;;;;5032040;28;20032;-62
2022/06/26 12:30:39;;;;;;;1.23;0.90;;;25.10;54.40;;;;;;5030765;28;20112;-62
2022/06/26 12:33:06;;;;;;;1.50;0.90;;;25.20;54.50;;;;;;5032325;28;20116;-65
2022/06/26 12:35:33;;;;;;;1.08;0.80;;;25.20;54.40;;;;;;5028799;28;20318;-62
2022/06/26 12:37:59;;;;;;;1.35;0.90;;;25.20;54.40;;;;;;5031349;28;20094;-65
2022/06/26 12:40:26;;;;;;;1.23;0.80;;;25.20;54.40;;;;;;5027847;28;21731;-69
2022/06/26 12:42:52;;;;;;;1.83;1.00;;;25.20;54.40;;;;;;5027992;28;20033;-64
2022/06/26 12:45:17;;;;;;;1.88;1.00;;;25.20;54.40;;;;;;5030315;28;20033;-61
2022/06/26 12:47:43;;;;;;;1.15;0.80;;;25.20;54.40;;;;;;5024457;28;20143;-65
2022/06/26 12:50:10;;;;;;;1.40;0.80;;;25.20;54.40;;;;;;5030023;28;20067;-64
2022/06/26 12:52:36;;;;;;;1.67;0.90;;;25.20;54.40;;;;;;5031297;28;20041;-66
2022/06/26 12:55:04;;;;;;;1.20;0.80;;;25.20;54.40;;;;;;5031311;28;20036;-61
2022/06/26 12:57:30;;;;;;;1.45;0.90;;;25.20;54.40;;;;;;5031161;28;20029;-65
2022/06/26 12:59:55;;;;;;;1.92;0.88;;;25.20;54.90;;;;;;5032790;28;20114;-64
2022/06/26 13:02:21;;;;;;;1.48;1.10;;;25.20;54.90;;;;;;5030083;28;20136;-62